Time;durP1;ratioP1;P1;durP2;ratioP2;P2;SDS_P1;SDS_P2;PMS_P1;PMS_P2;Temp;Humidity;BMP_temperature;BMP_pressure;BME280_temperature;BME280_humidity;BME280_pressure;Samples;Min_cycle;Max_cycle;Signal;HPM_P1;HPM_P2
2022/04/03 00:02:14;;;;;;;8.07;7.33;;;;;;;21.89;31.71;93929.22;6055721;28;103565;-60
2022/04/03 00:05:16;;;;;;;7.90;7.30;;;;;;;21.88;31.76;93925.78;6059951;28;103090;-59
2022/04/03 00:08:17;;;;;;;8.30;7.60;;;;;;;21.91;31.96;93919.00;6056351;28;104004;-58
2022/04/03 00:11:20;;;;;;;8.30;7.50;;;;;;;21.90;31.57;93902.25;6059803;28;104031;-59
2022/04/03 00:14:22;;;;;;;8.40;7.70;;;;;;;21.91;31.43;93903.03;6054846;28;103323;-58
2022/04/03 00:17:24;;;;;;;7.43;6.73;;;;;;;21.90;31.45;93904.91;6056696;28;103932;-58
2022/04/03 00:20:26;;;;;;;7.67;7.07;;;;;;;21.87;31.94;93900.25;6062458;28;105108;-58
2022/04/03 00:23:27;;;;;;;7.23;6.63;;;;;;;21.86;31.77;93906.69;6058727;28;103289;-59
2022/04/03 00:26:30;;;;;;;7.03;6.43;;;;;;;21.86;31.50;93914.69;6054120;28;103222;-59
2022/04/03 00:29:31;;;;;;;8.00;7.30;;;;;;;21.87;31.35;93912.78;6060643;28;103278;-58
2022/04/03 00:32:34;;;;;;;7.93;7.23;;;;;;;21.86;31.53;93911.25;6059233;28;103311;-59
2022/04/03 00:35:36;;;;;;;7.07;6.50;;;;;;;21.86;31.61;93909.34;6053753;28;103236;-59
2022/04/03 00:38:38;;;;;;;7.20;6.60;;;;;;;21.86;31.82;93904.03;6062183;28;104354;-59
2022/04/03 00:41:40;;;;;;;7.03;6.43;;;;;;;21.83;31.66;93880.69;6060424;28;103042;-59
2022/04/03 00:44:42;;;;;;;6.80;6.30;;;;;;;21.86;31.82;93896.03;6059299;28;103210;-58
2022/04/03 00:47:45;;;;;;;6.37;5.87;;;;;;;21.85;31.81;93905.13;6051228;28;103477;-58
2022/04/03 00:50:47;;;;;;;6.60;6.00;;;;;;;21.85;31.71;93894.47;6059697;28;103424;-59
2022/04/03 00:53:48;;;;;;;6.50;6.00;;;;;;;21.84;31.64;93906.22;6059241;28;104382;-58
2022/04/03 00:56:51;;;;;;;6.37;5.87;;;;;;;21.83;31.31;93904.66;6060715;28;103722;-58
2022/04/03 00:59:54;;;;;;;6.90;6.40;;;;;;;21.82;31.46;93905.78;6055691;28;103117;-59
2022/04/03 01:02:56;;;;;;;6.27;5.77;;;;;;;21.81;31.79;93893.53;6059095;28;104173;-58
2022/04/03 01:05:58;;;;;;;5.63;5.20;;;;;;;21.83;31.62;93903.88;6061174;28;103501;-59
2022/04/03 01:09:00;;;;;;;5.70;5.30;;;;;;;21.80;31.82;93889.31;6049665;28;103130;-59
2022/04/03 01:12:01;;;;;;;6.40;5.90;;;;;;;21.80;31.72;93860.03;6051364;28;103354;-59
2022/04/03 01:15:04;;;;;;;5.00;4.60;;;;;;;21.81;31.34;93872.22;6058096;28;103334;-59
2022/04/03 01:18:05;;;;;;;5.20;4.80;;;;;;;21.81;31.23;93894.31;6054404;28;104284;-59
2022/04/03 01:21:07;;;;;;;5.53;5.13;;;;;;;21.80;31.56;93903.41;6053309;28;102994;-59
2022/04/03 01:24:19;;;;;;;5.70;5.17;;;;;;;21.79;31.81;93909.84;6056706;28;103322;-58
2022/04/03 01:27:21;;;;;;;6.07;5.50;;;;;;;21.79;31.31;93912.50;6055642;28;104169;-59
2022/04/03 01:30:23;;;;;;;5.73;5.23;;;;;;;21.81;31.65;93904.97;6051803;28;103001;-58
2022/04/03 01:33:25;;;;;;;5.67;5.17;;;;;;;21.80;31.31;93899.97;6057744;28;106093;-58
2022/04/03 01:36:26;;;;;;;5.43;5.03;;;;;;;21.79;31.33;93904.53;6040561;28;103321;-58
2022/04/03 01:39:28;;;;;;;5.33;4.93;;;;;;;21.78;31.59;93923.50;6058903;28;103189;-59
2022/04/03 01:42:30;;;;;;;5.10;4.70;;;;;;;21.77;31.64;93924.59;6053256;28;103298;-59
2022/04/03 01:45:33;;;;;;;5.20;4.80;;;;;;;21.81;31.80;93928.16;6057181;28;103276;-59
2022/04/03 01:48:34;;;;;;;4.97;4.57;;;;;;;21.81;31.20;93925.50;6056495;28;103489;-59
2022/04/03 01:51:36;;;;;;;5.43;5.03;;;;;;;21.79;31.81;93925.81;6060846;28;103276;-59
2022/04/03 01:54:38;;;;;;;5.20;4.80;;;;;;;21.78;31.23;93926.16;6056584;28;103042;-59
2022/04/03 01:57:40;;;;;;;4.70;4.30;;;;;;;21.77;31.61;93930.72;6059259;28;103165;-58
2022/04/03 02:00:41;;;;;;;4.80;4.50;;;;;;;21.77;31.29;93927.28;6071050;28;103948;-58
2022/04/03 02:03:43;;;;;;;4.70;4.30;;;;;;;21.75;31.66;93916.19;6039538;28;103375;-60
2022/04/03 02:06:45;;;;;;;5.03;4.63;;;;;;;21.76;31.54;93918.50;6059440;28;104112;-59
2022/04/03 02:09:47;;;;;;;4.97;4.57;;;;;;;21.76;31.02;93917.72;6072807;28;103341;-59
2022/04/03 02:12:48;;;;;;;5.00;4.60;;;;;;;21.77;31.50;93903.31;6060733;28;103581;-58
2022/04/03 02:15:51;;;;;;;4.50;4.10;;;;;;;21.76;30.90;93897.19;6053600;28;103322;-58
2022/04/03 02:18:52;;;;;;;4.97;4.57;;;;;;;21.74;31.45;93904.75;6057301;28;104320;-60
2022/04/03 02:21:54;;;;;;;4.60;4.20;;;;;;;21.75;31.09;93895.66;6013307;28;1418700;-60
2022/04/03 02:24:56;;;;;;;4.60;4.20;;;;;;;21.76;31.41;93901.75;6062051;28;103630;-60
2022/04/03 02:27:59;;;;;;;4.87;4.47;;;;;;;21.74;31.20;93903.97;6052055;28;104220;-59
2022/04/03 02:31:01;;;;;;;3.90;3.60;;;;;;;21.74;31.46;93899.41;6061567;28;103017;-59
2022/04/03 02:34:05;;;;;;;5.03;4.63;;;;;;;21.74;31.20;93899.41;6062412;28;103092;-59
2022/04/03 02:37:07;;;;;;;3.87;3.57;;;;;;;21.74;31.45;93915.41;6054895;28;105951;-60
2022/04/03 02:40:11;;;;;;;4.20;3.80;;;;;;;21.72;31.42;93911.53;6060324;28;103314;-59
2022/04/03 02:43:13;;;;;;;4.50;4.20;;;;;;;21.72;31.37;93906.97;6062301;28;103131;-60
2022/04/03 02:46:14;;;;;;;4.33;4.03;;;;;;;21.71;30.94;93910.75;6060919;28;103215;-60
2022/04/03 02:49:18;;;;;;;4.23;3.93;;;;;;;21.70;31.21;93909.19;6053477;28;103404;-60
2022/04/03 02:52:20;;;;;;;3.93;3.63;;;;;;;21.73;31.15;93905.84;6061829;28;103562;-60
2022/04/03 02:55:24;;;;;;;4.10;3.80;;;;;;;21.73;31.09;93921.06;6063382;28;104254;-59
2022/04/03 02:58:26;;;;;;;4.67;4.23;;;;;;;21.69;31.04;93912.97;6051794;28;103160;-59
2022/04/03 03:01:27;;;;;;;4.30;3.90;;;;;;;21.70;30.94;93913.72;6059488;28;103572;-59
2022/04/03 03:04:31;;;;;;;4.13;3.83;;;;;;;21.69;31.16;93925.50;6061577;28;102979;-59
2022/04/03 03:07:37;;;;;;;3.40;3.10;;;;;;;21.68;30.88;93922.06;6057393;28;103190;-59
2022/04/03 03:10:39;;;;;;;3.57;3.37;;;;;;;21.69;30.94;93923.59;6056206;28;103454;-59
2022/04/03 03:13:41;;;;;;;3.50;3.20;;;;;;;21.68;30.83;93921.28;6061236;28;104479;-59
2022/04/03 03:16:43;;;;;;;3.80;3.50;;;;;;;21.70;31.13;93925.16;6059962;28;103232;-59
2022/04/03 03:19:45;;;;;;;4.07;3.77;;;;;;;21.69;30.76;93928.16;6064811;28;104118;-59
2022/04/03 03:22:46;;;;;;;3.90;3.60;;;;;;;21.67;30.87;93927.69;6055451;28;105413;-59
2022/04/03 03:25:48;;;;;;;3.93;3.63;;;;;;;21.67;31.17;93936.44;6062299;28;104088;-59
2022/04/03 03:28:50;;;;;;;3.70;3.40;;;;;;;21.68;31.25;93946.03;6061160;28;103247;-60
2022/04/03 03:31:52;;;;;;;3.47;3.20;;;;;;;21.67;31.06;93938.34;6055059;28;103605;-59
2022/04/03 03:34:54;;;;;;;3.90;3.57;;;;;;;21.68;30.74;93931.94;6055210;28;104204;-59
2022/04/03 03:37:56;;;;;;;3.80;3.50;;;;;;;21.67;31.06;93935.66;6056845;28;103458;-59
2022/04/03 03:40:57;;;;;;;3.87;3.57;;;;;;;21.65;30.87;93948.53;6060808;28;103495;-60
2022/04/03 03:43:59;;;;;;;4.03;3.63;;;;;;;21.66;31.09;93960.75;6054492;28;103577;-60
2022/04/03 03:47:01;;;;;;;3.00;2.80;;;;;;;21.67;30.95;93962.28;6045497;28;104240;-59
2022/04/03 03:50:04;;;;;;;4.10;3.70;;;;;;;21.69;31.20;93954.78;6064781;28;104347;-57
2022/04/03 03:53:05;;;;;;;4.87;4.50;;;;;;;21.71;30.67;93957.88;6060937;28;103910;-58
2022/04/03 03:56:07;;;;;;;5.67;5.27;;;;;;;21.71;31.35;93964.00;6054993;28;103424;-60
2022/04/03 03:59:09;;;;;;;5.57;5.17;;;;;;;21.72;30.93;93959.44;6054184;28;105277;-57
2022/04/03 04:02:10;;;;;;;6.80;6.30;;;;;;;21.71;31.21;93971.97;6061341;28;103293;-58
2022/04/03 04:05:13;;;;;;;7.10;6.50;;;;;;;21.72;30.89;93975.41;6055209;28;102886;-59
2022/04/03 04:08:14;;;;;;;6.87;6.33;;;;;;;21.72;31.06;93978.84;6062606;28;103605;-59
2022/04/03 04:11:17;;;;;;;7.97;7.27;;;;;;;21.72;31.07;93994.06;6059519;28;103131;-58
2022/04/03 04:14:18;;;;;;;7.97;7.30;;;;;;;21.71;31.08;94001.28;6059245;28;103047;-57
2022/04/03 04:17:20;;;;;;;8.50;7.80;;;;;;;21.71;31.35;94008.47;6050498;28;103903;-58
2022/04/03 04:20:23;;;;;;;8.70;8.00;;;;;;;21.70;31.20;94010.38;6058676;28;103593;-58
2022/04/03 04:23:25;;;;;;;8.27;7.60;;;;;;;21.69;31.00;94006.16;6060175;28;103937;-58
2022/04/03 04:26:27;;;;;;;8.57;7.90;;;;;;;21.71;31.12;94008.47;6039968;28;103174;-59
2022/04/03 04:29:29;;;;;;;9.07;8.37;;;;;;;21.71;30.82;94021.78;6052966;28;104088;-57
2022/04/03 04:32:32;;;;;;;10.80;9.90;;;;;;;21.71;31.06;94024.47;6058354;28;103714;-57
2022/04/03 04:35:34;;;;;;;10.97;9.90;;;;;;;21.70;31.19;94036.22;6075285;28;104014;-58
2022/04/03 04:38:36;;;;;;;10.40;9.50;;;;;;;21.70;31.03;94046.88;6056617;28;104026;-57
2022/04/03 04:41:40;;;;;;;11.10;10.20;;;;;;;21.68;30.86;94039.22;6058291;28;103637;-57
2022/04/03 04:44:42;;;;;;;11.17;10.30;;;;;;;21.70;31.10;94039.66;6056681;28;104674;-58
2022/04/03 04:47:44;;;;;;;10.90;10.00;;;;;;;21.70;30.90;94036.22;6036895;28;103101;-58
2022/04/03 04:50:46;;;;;;;11.37;10.47;;;;;;;21.71;31.09;94040.44;6052867;28;103566;-58
2022/04/03 04:53:52;;;;;;;12.40;11.30;;;;;;;21.73;30.99;94033.66;6061957;28;104126;-59
2022/04/03 04:56:55;;;;;;;12.33;11.23;;;;;;;21.76;31.22;94045.53;6061264;28;104064;-59
2022/04/03 04:59:58;;;;;;;10.97;10.07;;;;;;;21.77;31.22;94052.44;6067651;28;103539;-58
2022/04/03 05:03:00;;;;;;;12.63;11.53;;;;;;;21.78;31.35;94043.34;6059894;28;103558;-58
2022/04/03 05:06:02;;;;;;;11.37;10.23;;;;;;;21.78;31.66;94046.78;6059717;28;103410;-58
2022/04/03 05:09:05;;;;;;;11.17;10.20;;;;;;;21.79;31.24;94056.31;6058887;28;103035;-58
2022/04/03 05:12:07;;;;;;;11.17;10.17;;;;;;;21.80;31.95;94065.09;6054249;28;103300;-58
2022/04/03 05:15:11;;;;;;;12.07;10.63;;;;;;;21.80;31.58;94065.88;6056301;28;103028;-59
2022/04/03 05:18:13;;;;;;;10.90;9.83;;;;;;;21.81;31.68;94078.06;6052368;28;104066;-59
2022/04/03 05:21:16;;;;;;;10.07;9.27;;;;;;;21.80;32.06;94078.41;6058265;28;104074;-58
2022/04/03 05:24:18;;;;;;;9.80;9.00;;;;;;;21.79;31.83;94082.94;6066078;28;104275;-59
2022/04/03 05:27:19;;;;;;;9.73;8.83;;;;;;;21.81;32.00;94093.28;6060929;28;103600;-60
2022/04/03 05:30:21;;;;;;;9.27;8.47;;;;;;;21.80;31.88;94089.06;6070391;28;104318;-57
2022/04/03 05:33:23;;;;;;;11.37;7.80;;;;;;;21.78;31.71;94092.03;6058588;28;103021;-58
2022/04/03 05:36:25;;;;;;;9.13;8.33;;;;;;;21.81;32.43;94093.28;6063053;28;103100;-58
2022/04/03 05:39:26;;;;;;;8.80;7.37;;;;;;;21.81;32.11;94090.59;6061784;28;103156;-58
2022/04/03 05:42:28;;;;;;;7.37;6.77;;;;;;;21.78;32.28;94094.69;6062532;28;103304;-58
2022/04/03 05:45:30;;;;;;;6.90;4.17;;;;;;;21.61;30.84;94099.41;6058138;28;104512;-57
2022/04/03 05:48:32;;;;;;;5.23;4.73;;;;;;;19.67;31.61;94089.34;6066640;28;104574;-58
2022/04/03 05:51:34;;;;;;;11.23;6.17;;;;;;;20.22;31.72;94092.06;6068290;28;104506;-58
2022/04/03 05:54:36;;;;;;;6.50;4.93;;;;;;;20.28;31.32;94098.78;6057648;28;104406;-58
2022/04/03 05:57:38;;;;;;;6.33;5.20;;;;;;;20.39;31.01;94098.47;6061163;28;103391;-57
2022/04/03 06:00:40;;;;;;;6.37;5.17;;;;;;;20.52;30.65;94106.25;6070156;28;103485;-61
2022/04/03 06:03:42;;;;;;;5.73;4.77;;;;;;;19.66;31.86;94107.16;6063425;28;104923;-58
2022/04/03 06:06:43;;;;;;;8.10;4.73;;;;;;;19.67;31.73;94108.72;6054281;28;103207;-59
2022/04/03 06:09:45;;;;;;;8.90;4.97;;;;;;;20.23;30.97;94106.13;6060651;28;103492;-58
2022/04/03 06:13:08;;;;;;;9.67;5.47;;;;;;;20.57;30.78;94107.94;6061919;28;103295;-59
2022/04/03 06:16:10;;;;;;;6.17;5.57;;;;;;;21.02;30.10;94115.41;6039500;28;104349;-60
2022/04/03 06:19:12;;;;;;;7.07;5.30;;;;;;;21.19;30.00;94129.44;6054222;28;103854;-61
2022/04/03 06:22:14;;;;;;;8.40;4.97;;;;;;;21.47;29.79;94123.59;6061076;28;103174;-59
2022/04/03 06:25:16;;;;;;;8.90;4.83;;;;;;;21.20;30.73;94130.97;6062946;28;105370;-59
2022/04/03 06:28:18;;;;;;;8.37;4.60;;;;;;;20.99;30.79;94129.31;6053451;28;104680;-59
2022/04/03 06:31:20;;;;;;;5.80;3.70;;;;;;;21.18;30.14;94127.88;6062320;28;104370;-59
2022/04/03 06:34:22;;;;;;;4.40;2.70;;;;;;;21.30;29.62;94140.47;6062385;28;103060;-61
2022/04/03 06:37:24;;;;;;;12.23;3.47;;;;;;;21.31;30.46;94134.03;6067528;28;103415;-59
2022/04/03 06:40:26;;;;;;;8.20;3.50;;;;;;;21.34;30.74;94141.41;6058709;28;104496;-58
2022/04/03 06:43:29;;;;;;;8.80;2.50;;;;;;;21.37;29.83;94140.75;6061526;28;104176;-58
2022/04/03 06:46:32;;;;;;;2.73;1.90;;;;;;;21.36;29.11;94141.84;6061910;28;103467;-60
2022/04/03 06:49:35;;;;;;;3.67;1.60;;;;;;;21.42;28.32;94147.75;6052125;28;103021;-60
2022/04/03 06:52:37;;;;;;;5.20;1.77;;;;;;;21.50;28.39;94152.22;6062326;28;104171;-58
2022/04/03 06:55:39;;;;;;;6.00;2.53;;;;;;;21.66;29.45;94152.44;6060669;28;103159;-59
2022/04/03 06:58:41;;;;;;;2.77;1.70;;;;;;;21.69;28.59;94157.91;6056575;28;103040;-59
2022/04/03 07:01:43;;;;;;;3.03;1.40;;;;;;;21.68;28.66;94163.56;6040396;28;104038;-58
2022/04/03 07:04:45;;;;;;;3.40;1.80;;;;;;;21.66;28.71;94163.09;6044610;28;103281;-57
2022/04/03 07:07:54;;;;;;;7.03;2.70;;;;;;;21.56;29.17;94172.25;6058267;28;103908;-59
2022/04/03 07:10:56;;;;;;;4.80;1.57;;;;;;;21.59;29.14;94176.94;6059880;28;104546;-58
2022/04/03 07:13:58;;;;;;;1.90;1.30;;;;;;;21.59;28.79;94189.47;6055185;28;103631;-57
2022/04/03 07:17:02;;;;;;;5.00;1.57;;;;;;;21.60;29.53;94193.69;6062779;28;103128;-58
2022/04/03 07:20:06;;;;;;;4.60;2.03;;;;;;;21.61;29.37;94198.69;6059120;28;103903;-58
2022/04/03 07:23:08;;;;;;;4.13;2.03;;;;;;;21.62;29.48;94202.13;6039499;28;104406;-58
2022/04/03 07:26:09;;;;;;;5.10;1.80;;;;;;;21.63;28.99;94211.66;6061216;28;103122;-57
2022/04/03 07:29:11;;;;;;;6.57;2.00;;;;;;;21.45;31.51;94222.41;6062755;28;103720;-58
2022/04/03 07:32:13;;;;;;;3.57;1.80;;;;;;;21.40;30.32;94225.25;6063740;28;103868;-59
2022/04/03 07:35:15;;;;;;;9.53;4.30;;;;;;;21.27;30.53;94226.25;6053914;28;103207;-59
2022/04/03 07:38:18;;;;;;;8.70;4.77;;;;;;;21.22;29.60;94226.44;6063532;28;104201;-58
2022/04/03 07:41:20;;;;;;;5.87;4.20;;;;;;;21.35;29.90;94232.66;6062705;28;104375;-60
2022/04/03 07:44:22;;;;;;;4.97;3.43;;;;;;;21.52;29.22;94220.03;6058818;28;103441;-61
2022/04/03 07:47:25;;;;;;;10.40;3.20;;;;;;;21.74;29.23;94228.84;6055631;28;103330;-61
2022/04/03 07:50:27;;;;;;;8.00;3.83;;;;;;;21.86;28.46;94236.94;6060979;28;103270;-58
2022/04/03 07:53:29;;;;;;;10.53;4.07;;;;;;;21.72;31.00;94217.72;6062051;28;104042;-58
2022/04/03 07:56:31;;;;;;;6.00;3.90;;;;;;;21.72;31.54;94239.03;6056567;28;104638;-59
2022/04/03 07:59:34;;;;;;;5.07;2.80;;;;;;;21.70;31.68;94230.59;6061493;28;104167;-60
2022/04/03 08:02:35;;;;;;;4.77;3.20;;;;;;;21.56;30.94;94230.81;6060081;28;103974;-59
2022/04/03 08:05:37;;;;;;;6.30;2.60;;;;;;;21.60;30.87;94234.38;6057507;28;103452;-60
2022/04/03 08:08:39;;;;;;;7.30;2.77;;;;;;;21.65;31.39;94244.84;6074487;28;103943;-58
2022/04/03 08:11:42;;;;;;;4.60;2.00;;;;;;;21.77;30.62;94238.84;6059776;28;104297;-58
2022/04/03 08:14:44;;;;;;;5.07;2.30;;;;;;;21.80;30.90;94243.50;6071092;28;104080;-60
2022/04/03 08:17:46;;;;;;;7.00;2.07;;;;;;;21.85;30.91;94256.69;6064897;28;103232;-60
2022/04/03 08:20:48;;;;;;;5.20;1.77;;;;;;;21.74;30.97;94258.13;6077831;28;104096;-58
2022/04/03 08:23:50;;;;;;;5.90;2.40;;;;;;;21.71;30.14;94256.91;6063961;28;104766;-58
2022/04/03 08:26:52;;;;;;;3.97;1.50;;;;;;;21.59;29.63;94253.34;6065859;28;103355;-58
2022/04/03 08:29:53;;;;;;;4.10;1.17;;;;;;;21.49;28.86;94249.94;6055202;28;103348;-59
2022/04/03 08:32:56;;;;;;;1.60;1.50;;;;;;;21.49;28.60;94244.63;6059379;28;102979;-58
2022/04/03 08:35:58;;;;;;;2.23;1.60;;;;;;;21.45;27.78;94237.59;6058696;28;103566;-59
2022/04/03 08:38:59;;;;;;;6.83;1.37;;;;;;;21.36;27.59;94235.00;6059777;28;102757;-59
2022/04/03 08:42:01;;;;;;;1.43;1.07;;;;;;;21.36;28.11;94250.19;6054514;28;103367;-59
2022/04/03 08:45:04;;;;;;;1.30;1.13;;;;;;;21.34;27.86;94253.16;6056755;28;103782;-59
2022/04/03 08:48:08;;;;;;;3.93;1.50;;;;;;;21.45;28.06;94265.00;6060830;28;103111;-59
2022/04/03 08:51:10;;;;;;;2.37;1.27;;;;;;;21.42;27.32;94270.19;6051846;28;103355;-59
2022/04/03 08:54:14;;;;;;;2.83;1.13;;;;;;;21.45;27.58;94270.31;6054412;28;103096;-60
2022/04/03 08:57:15;;;;;;;2.87;1.33;;;;;;;21.42;27.47;94260.31;6061422;28;104002;-58
2022/04/03 09:00:18;;;;;;;2.90;1.23;;;;;;;21.47;27.63;94267.34;6063378;28;103559;-59
2022/04/03 09:03:20;;;;;;;5.00;1.33;;;;;;;21.48;27.42;94272.34;6050996;28;104092;-59
2022/04/03 09:06:21;;;;;;;1.83;1.70;;;;;;;21.57;26.85;94272.31;6061218;28;103672;-59
2022/04/03 09:09:25;;;;;;;2.33;1.37;;;;;;;21.59;26.96;94274.66;6055268;28;103462;-59
2022/04/03 09:12:27;;;;;;;1.77;1.60;;;;;;;21.58;27.35;94270.44;6038394;28;103019;-59
2022/04/03 09:15:30;;;;;;;1.77;1.30;;;;;;;21.56;27.27;94269.97;6069041;28;104423;-59
2022/04/03 09:18:43;;;;;;;1.40;1.07;;;;;;;21.47;27.03;94276.09;6062419;28;103043;-60
2022/04/03 09:21:45;;;;;;;2.73;1.20;;;;;;;21.47;27.29;94281.44;6059499;28;103078;-59
2022/04/03 09:24:47;;;;;;;3.43;1.53;;;;;;;21.42;27.26;94276.28;6052462;28;103462;-59
2022/04/03 09:28:03;;;;;;;1.27;1.17;;;;;;;21.45;26.99;94275.66;6062586;28;104190;-59
2022/04/03 09:31:05;;;;;;;1.37;1.20;;;;;;;21.71;27.26;94286.19;6061853;28;104243;-58
2022/04/03 09:34:12;;;;;;;2.97;1.30;;;;;;;21.72;26.89;94282.41;6060766;28;103822;-59
2022/04/03 09:37:14;;;;;;;1.10;0.90;;;;;;;21.77;27.22;94289.44;6056790;28;103336;-59
2022/04/03 09:40:29;;;;;;;1.30;1.20;;;;;;;21.90;27.96;94288.47;6055884;28;104244;-59
2022/04/03 09:43:40;;;;;;;1.20;1.00;;;;;;;21.99;28.43;94302.50;6056975;28;103291;-60
2022/04/03 09:46:42;;;;;;;4.53;1.50;;;;;;;21.96;28.22;94308.47;6055924;28;104213;-59
2022/04/03 09:49:52;;;;;;;3.43;1.30;;;;;;;21.94;28.03;94312.56;6046276;28;104780;-59
2022/04/03 09:52:55;;;;;;;2.40;1.30;;;;;;;21.90;28.58;94307.09;6057733;28;103361;-59
2022/04/03 09:55:57;;;;;;;3.63;1.33;;;;;;;21.87;28.43;94299.75;6058508;28;104383;-60
2022/04/03 09:59:01;;;;;;;2.20;1.50;;;;;;;21.87;28.52;94314.97;6058442;28;103164;-59
2022/04/03 10:02:13;;;;;;;1.97;1.30;;;;;;;21.86;28.40;94308.84;6062660;28;104129;-59
2022/04/03 10:05:16;;;;;;;2.20;1.30;;;;;;;21.84;28.46;94308.38;6041828;28;103268;-59
2022/04/03 10:08:19;;;;;;;1.17;1.07;;;;;;;21.93;28.39;94300.34;6057902;28;104109;-57
2022/04/03 10:11:21;;;;;;;1.83;1.10;;;;;;;21.93;28.21;94309.13;6063034;28;104405;-59
2022/04/03 10:14:25;;;;;;;1.47;1.37;;;;;;;21.88;28.33;94306.66;6060757;28;103237;-58
2022/04/03 10:17:26;;;;;;;1.63;1.37;;;;;;;21.89;28.31;94296.78;6069665;28;103613;-58
2022/04/03 10:20:28;;;;;;;2.30;1.23;;;;;;;21.87;28.35;94309.63;6065696;28;103218;-59
2022/04/03 10:23:31;;;;;;;1.47;1.20;;;;;;;21.87;28.46;94301.66;6031580;28;103264;-59
2022/04/03 10:26:36;;;;;;;1.40;1.30;;;;;;;21.86;28.73;94306.19;6016122;28;103090;-60
2022/04/03 10:29:40;;;;;;;1.57;1.47;;;;;;;21.87;28.25;94315.75;6012905;28;105077;-61
2022/04/03 10:32:41;;;;;;;2.10;1.57;;;;;;;21.84;28.14;94315.56;6015003;28;104067;-59
2022/04/03 10:35:48;;;;;;;1.13;1.00;;;;;;;21.85;28.15;94309.97;6022457;28;103328;-59
2022/04/03 10:39:04;;;;;;;1.40;1.10;;;;;;;21.82;28.33;94310.56;6018199;28;102888;-60
2022/04/03 10:42:20;;;;;;;1.53;1.40;;;;;;;21.83;28.38;94314.81;6032747;28;103265;-59
2022/04/03 10:45:33;;;;;;;3.60;1.40;;;;;;;21.83;28.63;94312.13;6030824;28;106391;-60
2022/04/03 10:48:35;;;;;;;2.93;2.63;;;;;;;21.81;28.54;94312.44;6017590;28;103619;-59
2022/04/03 10:51:36;;;;;;;5.87;3.83;;;;;;;21.80;29.72;94313.53;6013281;28;104332;-61
2022/04/03 10:54:49;;;;;;;4.83;3.37;;;;;;;21.81;28.92;94314.31;6004952;28;103385;-60
2022/04/03 10:58:06;;;;;;;4.50;3.57;;;;;;;21.81;29.19;94316.97;6013593;28;105089;-59
2022/04/03 11:01:11;;;;;;;6.50;3.00;;;;;;;21.79;29.31;94311.97;6015033;28;104039;-59
2022/04/03 11:04:14;;;;;;;4.63;3.60;;;;;;;21.80;29.22;94318.09;6010659;28;103381;-59
2022/04/03 11:07:17;;;;;;;4.23;2.97;;;;;;;21.72;29.94;94326.91;6013326;28;104305;-58
2022/04/03 11:10:57;;;;;;;4.80;2.90;;;;;;;21.75;29.96;94335.03;6014619;29;104307;-58
2022/04/03 11:13:59;;;;;;;3.87;2.50;;;;;;;21.76;30.36;94336.59;6006102;28;105091;-57
2022/04/03 11:17:01;;;;;;;3.13;2.30;;;;;;;21.74;31.27;94341.47;6022629;28;103440;-59
2022/04/03 11:20:03;;;;;;;2.50;2.30;;;;;;;21.70;31.03;94345.88;6037451;28;102910;-58
2022/04/03 11:23:07;;;;;;;2.30;1.83;;;;;;;21.63;31.11;94342.13;6034980;28;104155;-59
2022/04/03 11:26:09;;;;;;;3.00;2.70;;;;;;;21.57;31.24;94340.75;6017032;28;104579;-58
2022/04/03 11:29:11;;;;;;;2.10;1.90;;;;;;;21.52;31.92;94344.38;6016000;28;103166;-58
2022/04/03 11:32:14;;;;;;;2.10;1.90;;;;;;;21.46;32.05;94346.41;6013914;28;104308;-58
2022/04/03 11:35:16;;;;;;;2.23;1.97;;;;;;;21.41;31.58;94349.25;6011481;28;103244;-59
2022/04/03 11:38:20;;;;;;;2.40;2.20;;;;;;;21.40;32.11;94362.88;6004663;29;103124;-59
2022/04/03 11:41:28;;;;;;;3.40;2.00;;;;;;;21.50;31.68;94362.53;6028849;28;103094;-59
2022/04/03 11:44:30;;;;;;;2.57;2.37;;;;;;;21.57;31.01;94362.06;5996455;29;104216;-58
2022/04/03 11:47:32;;;;;;;4.33;2.50;;;;;;;21.59;31.34;94365.16;6011483;28;103375;-58
2022/04/03 11:50:35;;;;;;;2.27;2.13;;;;;;;21.62;31.55;94365.31;6015313;28;103142;-59
2022/04/03 11:53:39;;;;;;;2.67;2.20;;;;;;;21.64;31.69;94375.63;6038643;28;103989;-58
2022/04/03 11:56:41;;;;;;;2.20;2.10;;;;;;;21.65;31.25;94383.31;6015481;28;103180;-58
2022/04/03 11:59:48;;;;;;;4.63;2.03;;;;;;;21.69;31.18;94388.78;6010153;29;103740;-59
2022/04/03 12:02:56;;;;;;;2.23;2.10;;;;;;;21.73;31.32;94382.50;6015297;29;103426;-58
2022/04/03 12:06:18;;;;;;;2.33;2.13;;;;;;;21.76;31.59;94381.88;6015641;29;104105;-58
2022/04/03 12:09:21;;;;;;;2.40;2.20;;;;;;;21.79;31.57;94393.75;6009096;28;103116;-58
2022/04/03 12:12:24;;;;;;;1.87;1.77;;;;;;;21.79;31.72;94391.09;6015248;28;104282;-60
2022/04/03 12:15:31;;;;;;;2.20;2.00;;;;;;;21.78;31.77;94414.28;6014908;29;103290;-60
2022/04/03 12:18:54;;;;;;;3.00;2.07;;;;;;;21.79;31.96;94420.38;6029357;28;103130;-59
2022/04/03 12:22:00;;;;;;;1.80;1.70;;;;;;;21.79;32.19;94418.50;6026354;28;104191;-60
2022/04/03 12:25:02;;;;;;;1.83;1.73;;;;;;;21.80;32.63;94409.41;6061543;28;103023;-60
2022/04/03 12:28:04;;;;;;;4.50;1.80;;;;;;;21.83;32.62;94400.03;6057599;28;103232;-60
2022/04/03 12:31:12;;;;;;;3.47;2.30;;;;;;;21.85;33.13;94389.88;6049870;28;103191;-59
2022/04/03 12:34:16;;;;;;;2.10;1.90;;;;;;;21.85;32.69;94384.53;6060593;28;103327;-59
2022/04/03 12:37:19;;;;;;;2.07;1.87;;;;;;;21.85;32.54;94394.41;6062158;28;103074;-59
2022/04/03 12:40:22;;;;;;;2.23;1.90;;;;;;;21.85;32.60;94389.88;6061216;28;103309;-60
2022/04/03 12:43:24;;;;;;;2.00;1.70;;;;;;;21.85;32.66;94397.84;6056924;28;103981;-60
2022/04/03 12:46:37;;;;;;;2.33;2.07;;;;;;;21.85;32.75;94405.84;6020969;28;103034;-58
2022/04/03 12:49:40;;;;;;;2.50;1.80;;;;;;;21.86;33.04;94407.41;6050877;28;104008;-58
2022/04/03 12:52:48;;;;;;;4.50;2.00;;;;;;;21.86;32.88;94411.94;6059799;28;103315;-61
2022/04/03 12:55:51;;;;;;;1.80;1.70;;;;;;;21.85;32.93;94407.72;6060032;28;103493;-60
2022/04/03 12:58:53;;;;;;;2.60;1.60;;;;;;;21.85;33.06;94411.16;6043857;28;103268;-58
2022/04/03 13:01:55;;;;;;;1.80;1.70;;;;;;;21.85;32.85;94408.50;6060478;28;104716;-58
2022/04/03 13:04:59;;;;;;;2.20;1.80;;;;;;;21.83;32.64;94415.22;6055171;28;103549;-59
2022/04/03 13:08:11;;;;;;;1.63;1.53;;;;;;;21.86;33.22;94418.06;6061308;28;104593;-59
2022/04/03 13:11:28;;;;;;;2.60;2.40;;;;;;;21.86;32.99;94423.38;6061179;28;103470;-57
2022/04/03 13:14:36;;;;;;;3.83;3.00;;;;;;;21.87;32.50;94410.84;6061274;28;104352;-58
2022/04/03 13:17:38;;;;;;;3.53;3.23;;;;;;;21.84;32.79;94414.13;6059688;28;103673;-57
2022/04/03 13:20:45;;;;;;;2.93;2.73;;;;;;;21.83;32.51;94418.69;6060219;28;103803;-65
2022/04/03 13:23:47;;;;;;;2.57;2.37;;;;;;;21.96;33.65;94411.59;6058810;28;103334;-58
2022/04/03 13:27:09;;;;;;;3.40;3.10;;;;;;;21.99;33.06;94401.06;6056590;28;103301;-58
2022/04/03 13:30:11;;;;;;;3.63;3.33;;;;;;;21.94;32.79;94408.47;6059324;28;103372;-57
2022/04/03 13:33:13;;;;;;;4.57;2.90;;;;;;;21.91;33.37;94406.44;6059571;28;103248;-58
2022/04/03 13:36:16;;;;;;;3.30;3.10;;;;;;;21.90;32.87;94418.97;6078146;28;104212;-59
2022/04/03 13:39:18;;;;;;;3.20;2.87;;;;;;;21.91;33.50;94425.09;6059064;28;103249;-57
2022/04/03 13:42:21;;;;;;;3.90;3.60;;;;;;;21.90;34.07;94424.31;6059391;28;104332;-58
2022/04/03 13:45:56;;;;;;;3.03;2.83;;;;;;;21.90;33.96;94424.31;6062159;28;102976;-59
2022/04/03 13:48:45;;;;;;;3.80;3.20;;;;;;;21.94;33.70;94429.78;6056297;28;104049;-58
2022/04/03 13:51:47;;;;;;;3.73;3.40;;;;;;;21.94;34.22;94427.88;6059787;28;104144;-57
2022/04/03 13:54:48;;;;;;;3.50;3.00;;;;;;;22.01;34.12;94428.19;6066850;28;103190;-57
2022/04/03 13:57:50;;;;;;;5.47;3.80;;;;;;;22.05;33.60;94431.00;6069108;28;103439;-57
2022/04/03 14:00:54;;;;;;;4.60;4.03;;;;;;;22.05;33.15;94439.75;6037723;28;103707;-58
2022/04/03 14:03:56;;;;;;;7.97;4.00;;;;;;;22.08;33.93;94441.00;6060753;28;104235;-62
2022/04/03 14:06:57;;;;;;;5.03;4.47;;;;;;;21.99;33.66;94443.69;6062376;28;104063;-57
2022/04/03 14:09:59;;;;;;;9.10;4.20;;;;;;;21.97;33.70;94432.56;6060708;28;103471;-58
2022/04/03 14:13:01;;;;;;;7.93;4.30;;;;;;;21.93;33.15;94439.66;6054846;28;103349;-58